sensor_id;sensor_type;location;lat;lon;timestamp;pressure;altitude;pressure_sealevel;temperature;humidity
46682;BME280;34101;53.430;-2.224;2023-08-30T00:00:00;100388.02;;;15.69;72.41
46682;BME280;34101;53.430;-2.224;2023-08-30T00:02:27;100386.18;;;15.70;72.22
46682;BME280;34101;53.430;-2.224;2023-08-30T00:04:59;100384.51;;;15.65;72.38
46682;BME280;34101;53.430;-2.224;2023-08-30T00:07:26;100380.70;;;15.53;72.52
46682;BME280;34101;53.430;-2.224;2023-08-30T00:09:53;100381.11;;;15.45;72.65
46682;BME280;34101;53.430;-2.224;2023-08-30T00:12:20;100379.39;;;15.24;72.90
46682;BME280;34101;53.430;-2.224;2023-08-30T00:14:48;100381.83;;;15.14;73.53
46682;BME280;34101;53.430;-2.224;2023-08-30T00:17:15;100383.92;;;14.88;74.58
46682;BME280;34101;53.430;-2.224;2023-08-30T00:19:43;100384.61;;;14.83;74.63
46682;BME280;34101;53.430;-2.224;2023-08-30T00:22:10;100385.52;;;14.71;75.09
46682;BME280;34101;53.430;-2.224;2023-08-30T00:24:37;100386.29;;;14.51;76.22
46682;BME280;34101;53.430;-2.224;2023-08-30T00:27:05;100389.15;;;14.53;76.05
46682;BME280;34101;53.430;-2.224;2023-08-30T00:29:33;100388.46;;;14.52;76.25
46682;BME280;34101;53.430;-2.224;2023-08-30T00:32:00;100385.91;;;14.55;76.17
46682;BME280;34101;53.430;-2.224;2023-08-30T00:34:27;100383.24;;;14.53;75.99
46682;BME280;34101;53.430;-2.224;2023-08-30T00:36:54;100380.77;;;14.49;76.18
46682;BME280;34101;53.430;-2.224;2023-08-30T00:39:22;100379.15;;;14.42;76.10
46682;BME280;34101;53.430;-2.224;2023-08-30T00:41:49;100378.81;;;14.35;76.68
46682;BME280;34101;53.430;-2.224;2023-08-30T00:44:17;100376.77;;;14.39;76.54
46682;BME280;34101;53.430;-2.224;2023-08-30T00:46:44;100376.85;;;14.40;76.24
46682;BME280;34101;53.430;-2.224;2023-08-30T00:49:12;100374.98;;;14.33;76.68
46682;BME280;34101;53.430;-2.224;2023-08-30T00:51:40;100374.33;;;14.35;76.76
46682;BME280;34101;53.430;-2.224;2023-08-30T00:54:07;100375.86;;;14.37;76.63
46682;BME280;34101;53.430;-2.224;2023-08-30T00:56:35;100376.26;;;14.43;76.54
46682;BME280;34101;53.430;-2.224;2023-08-30T00:59:02;100369.09;;;14.46;76.62
46682;BME280;34101;53.430;-2.224;2023-08-30T01:01:30;100361.87;;;14.54;76.50
46682;BME280;34101;53.430;-2.224;2023-08-30T01:03:57;100359.45;;;14.49;76.29
46682;BME280;34101;53.430;-2.224;2023-08-30T01:06:24;100355.64;;;14.55;76.92
46682;BME280;34101;53.430;-2.224;2023-08-30T01:08:52;100356.37;;;14.64;76.61
46682;BME280;34101;53.430;-2.224;2023-08-30T01:11:25;100356.38;;;14.63;76.23
46682;BME280;34101;53.430;-2.224;2023-08-30T01:13:57;100354.77;;;14.54;76.85
46682;BME280;34101;53.430;-2.224;2023-08-30T01:16:25;100357.00;;;14.59;76.86
46682;BME280;34101;53.430;-2.224;2023-08-30T01:18:55;100355.41;;;14.65;76.55
46682;BME280;34101;53.430;-2.224;2023-08-30T01:21:30;100351.84;;;14.64;76.90
46682;BME280;34101;53.430;-2.224;2023-08-30T01:24:00;100352.66;;;14.66;76.40
46682;BME280;34101;53.430;-2.224;2023-08-30T01:26:38;100347.36;;;14.59;76.39
46682;BME280;34101;53.430;-2.224;2023-08-30T01:29:09;100348.50;;;14.48;76.78
46682;BME280;34101;53.430;-2.224;2023-08-30T01:31:40;100352.88;;;14.46;77.10
46682;BME280;34101;53.430;-2.224;2023-08-30T01:34:08;100355.38;;;14.47;76.92
46682;BME280;34101;53.430;-2.224;2023-08-30T01:36:36;100355.87;;;14.45;76.95
46682;BME280;34101;53.430;-2.224;2023-08-30T01:39:03;100355.22;;;14.43;77.01
46682;BME280;34101;53.430;-2.224;2023-08-30T01:41:32;100355.65;;;14.41;76.94
46682;BME280;34101;53.430;-2.224;2023-08-30T01:44:02;100353.79;;;14.38;76.82
46682;BME280;34101;53.430;-2.224;2023-08-30T01:46:29;100352.66;;;14.36;77.06
46682;BME280;34101;53.430;-2.224;2023-08-30T01:48:57;100344.18;;;14.33;76.88
46682;BME280;34101;53.430;-2.224;2023-08-30T01:51:24;100343.14;;;14.32;76.86
46682;BME280;34101;53.430;-2.224;2023-08-30T01:53:52;100340.44;;;14.30;77.32
46682;BME280;34101;53.430;-2.224;2023-08-30T01:56:21;100345.16;;;14.34;77.01
46682;BME280;34101;53.430;-2.224;2023-08-30T01:58:48;100342.57;;;14.35;77.44
46682;BME280;34101;53.430;-2.224;2023-08-30T02:01:17;100339.69;;;14.37;77.32
46682;BME280;34101;53.430;-2.224;2023-08-30T02:03:44;100335.45;;;14.38;77.30
46682;BME280;34101;53.430;-2.224;2023-08-30T02:06:17;100331.35;;;14.44;76.91
46682;BME280;34101;53.430;-2.224;2023-08-30T02:08:51;100333.44;;;14.47;77.30
46682;BME280;34101;53.430;-2.224;2023-08-30T02:11:25;100329.83;;;14.56;77.01
46682;BME280;34101;53.430;-2.224;2023-08-30T02:13:57;100329.84;;;14.62;76.70
46682;BME280;34101;53.430;-2.224;2023-08-30T02:16:25;100330.12;;;14.71;76.79
46682;BME280;34101;53.430;-2.224;2023-08-30T02:18:53;100331.17;;;14.80;76.26
46682;BME280;34101;53.430;-2.224;2023-08-30T02:21:21;100328.70;;;14.86;76.08
46682;BME280;34101;53.430;-2.224;2023-08-30T02:23:50;100329.05;;;14.86;75.84
46682;BME280;34101;53.430;-2.224;2023-08-30T02:26:19;100330.95;;;14.79;75.71
46682;BME280;34101;53.430;-2.224;2023-08-30T02:28:46;100334.31;;;14.72;75.73
46682;BME280;34101;53.430;-2.224;2023-08-30T02:31:14;100335.10;;;14.71;75.85
46682;BME280;34101;53.430;-2.224;2023-08-30T02:33:41;100328.31;;;14.68;75.82
46682;BME280;34101;53.430;-2.224;2023-08-30T02:36:08;100325.70;;;14.64;75.95
46682;BME280;34101;53.430;-2.224;2023-08-30T02:38:36;100322.24;;;14.64;75.97
46682;BME280;34101;53.430;-2.224;2023-08-30T02:41:03;100322.03;;;14.70;75.75
46682;BME280;34101;53.430;-2.224;2023-08-30T02:43:31;100320.88;;;14.75;75.55
46682;BME280;34101;53.430;-2.224;2023-08-30T02:45:58;100321.50;;;14.77;75.38
46682;BME280;34101;53.430;-2.224;2023-08-30T02:48:25;100322.31;;;14.80;75.23
46682;BME280;34101;53.430;-2.224;2023-08-30T02:50:53;100327.47;;;14.84;74.98
46682;BME280;34101;53.430;-2.224;2023-08-30T02:53:20;100326.29;;;14.87;74.93
46682;BME280;34101;53.430;-2.224;2023-08-30T02:55:47;100329.04;;;14.87;74.88
46682;BME280;34101;53.430;-2.224;2023-08-30T02:58:15;100331.35;;;14.90;74.95
46682;BME280;34101;53.430;-2.224;2023-08-30T03:00:43;100333.14;;;14.97;74.84
46682;BME280;34101;53.430;-2.224;2023-08-30T03:03:11;100335.99;;;15.06;74.85
46682;BME280;34101;53.430;-2.224;2023-08-30T03:05:38;100334.79;;;15.11;74.72
46682;BME280;34101;53.430;-2.224;2023-08-30T03:08:06;100333.41;;;15.11;74.61
46682;BME280;34101;53.430;-2.224;2023-08-30T03:10:33;100328.06;;;15.15;74.63
46682;BME280;34101;53.430;-2.224;2023-08-30T03:13:00;100321.83;;;15.17;74.33
46682;BME280;34101;53.430;-2.224;2023-08-30T03:15:31;100315.55;;;15.11;74.38
46682;BME280;34101;53.430;-2.224;2023-08-30T03:17:59;100317.11;;;15.06;74.30
46682;BME280;34101;53.430;-2.224;2023-08-30T03:20:27;100321.84;;;14.99;74.63
46682;BME280;34101;53.430;-2.224;2023-08-30T03:22:56;100319.92;;;14.96;74.70
46682;BME280;34101;53.430;-2.224;2023-08-30T03:25:23;100317.45;;;14.99;74.38
46682;BME280;34101;53.430;-2.224;2023-08-30T03:27:52;100316.74;;;14.96;74.76
46682;BME280;34101;53.430;-2.224;2023-08-30T03:30:19;100313.18;;;14.95;74.77
46682;BME280;34101;53.430;-2.224;2023-08-30T03:32:46;100310.98;;;14.92;74.93
46682;BME280;34101;53.430;-2.224;2023-08-30T03:35:14;100309.13;;;14.88;74.79
46682;BME280;34101;53.430;-2.224;2023-08-30T03:37:41;100309.44;;;14.83;75.36
46682;BME280;34101;53.430;-2.224;2023-08-30T03:40:09;100310.72;;;14.91;75.32
46682;BME280;34101;53.430;-2.224;2023-08-30T03:42:37;100309.15;;;14.98;74.54
46682;BME280;34101;53.430;-2.224;2023-08-30T03:45:06;100305.33;;;14.93;74.96
46682;BME280;34101;53.430;-2.224;2023-08-30T03:47:33;100303.15;;;14.87;74.76
46682;BME280;34101;53.430;-2.224;2023-08-30T03:50:01;100299.59;;;14.73;75.29
46682;BME280;34101;53.430;-2.224;2023-08-30T03:52:28;100299.36;;;14.72;75.76
46682;BME280;34101;53.430;-2.224;2023-08-30T03:54:56;100305.23;;;14.83;75.81
46682;BME280;34101;53.430;-2.224;2023-08-30T03:57:23;100301.55;;;14.94;75.34
46682;BME280;34101;53.430;-2.224;2023-08-30T03:59:50;100302.37;;;15.01;75.14
46682;BME280;34101;53.430;-2.224;2023-08-30T04:02:18;100302.70;;;15.09;74.98
46682;BME280;34101;53.430;-2.224;2023-08-30T04:04:47;100305.19;;;15.13;74.84
46682;BME280;34101;53.430;-2.224;2023-08-30T04:07:14;100304.51;;;15.21;74.41
46682;BME280;34101;53.430;-2.224;2023-08-30T04:09:42;100313.63;;;15.20;74.57
46682;BME280;34101;53.430;-2.224;2023-08-30T04:12:09;100310.94;;;15.26;74.31
46682;BME280;34101;53.430;-2.224;2023-08-30T04:14:37;100317.79;;;15.18;74.87
46682;BME280;34101;53.430;-2.224;2023-08-30T04:17:04;100310.35;;;15.16;75.36
46682;BME280;34101;53.430;-2.224;2023-08-30T04:19:31;100315.88;;;15.07;75.48
46682;BME280;34101;53.430;-2.224;2023-08-30T04:21:59;100321.23;;;15.00;75.90
46682;BME280;34101;53.430;-2.224;2023-08-30T04:24:27;100321.18;;;14.94;76.21
46682;BME280;34101;53.430;-2.224;2023-08-30T04:26:54;100325.02;;;14.89;76.42
46682;BME280;34101;53.430;-2.224;2023-08-30T04:29:22;100325.51;;;14.88;76.64
46682;BME280;34101;53.430;-2.224;2023-08-30T04:31:49;100327.89;;;14.82;77.00
46682;BME280;34101;53.430;-2.224;2023-08-30T04:34:16;100329.50;;;14.80;77.19
46682;BME280;34101;53.430;-2.224;2023-08-30T04:36:43;100324.49;;;14.73;77.37
46682;BME280;34101;53.430;-2.224;2023-08-30T04:39:12;100324.64;;;14.70;77.79
46682;BME280;34101;53.430;-2.224;2023-08-30T04:41:39;100328.72;;;14.72;77.61
46682;BME280;34101;53.430;-2.224;2023-08-30T04:44:06;100323.91;;;14.71;77.85
46682;BME280;34101;53.430;-2.224;2023-08-30T04:46:34;100315.17;;;14.70;77.97
46682;BME280;34101;53.430;-2.224;2023-08-30T04:49:01;100309.99;;;14.67;77.94
46682;BME280;34101;53.430;-2.224;2023-08-30T04:51:29;100305.10;;;14.51;78.32
46682;BME280;34101;53.430;-2.224;2023-08-30T04:53:56;100302.10;;;14.47;78.50
46682;BME280;34101;53.430;-2.224;2023-08-30T04:56:24;100295.06;;;14.55;78.56
46682;BME280;34101;53.430;-2.224;2023-08-30T04:58:51;100296.02;;;14.53;78.26
46682;BME280;34101;53.430;-2.224;2023-08-30T05:01:19;100299.09;;;14.48;78.70
46682;BME280;34101;53.430;-2.224;2023-08-30T05:03:47;100304.73;;;14.45;78.75
46682;BME280;34101;53.430;-2.224;2023-08-30T05:06:15;100309.44;;;14.53;78.40
46682;BME280;34101;53.430;-2.224;2023-08-30T05:08:43;100313.91;;;14.54;78.51
46682;BME280;34101;53.430;-2.224;2023-08-30T05:11:10;100313.23;;;14.59;78.37
46682;BME280;34101;53.430;-2.224;2023-08-30T05:13:38;100315.13;;;14.65;78.40
46682;BME280;34101;53.430;-2.224;2023-08-30T05:16:05;100311.98;;;14.71;77.92
46682;BME280;34101;53.430;-2.224;2023-08-30T05:18:32;100316.54;;;14.70;78.36
46682;BME280;34101;53.430;-2.224;2023-08-30T05:21:00;100322.35;;;14.65;77.86
46682;BME280;34101;53.430;-2.224;2023-08-30T05:23:27;100317.32;;;14.65;78.34
46682;BME280;34101;53.430;-2.224;2023-08-30T05:25:55;100317.78;;;14.48;77.27
46682;BME280;34101;53.430;-2.224;2023-08-30T05:28:22;100318.51;;;14.46;78.39
46682;BME280;34101;53.430;-2.224;2023-08-30T05:30:49;100316.96;;;14.50;78.26
46682;BME280;34101;53.430;-2.224;2023-08-30T05:33:17;100320.95;;;14.50;77.90
46682;BME280;34101;53.430;-2.224;2023-08-30T05:35:44;100321.39;;;14.47;78.26
46682;BME280;34101;53.430;-2.224;2023-08-30T05:38:11;100323.25;;;14.54;77.98
46682;BME280;34101;53.430;-2.224;2023-08-30T05:40:39;100327.01;;;14.57;77.66
46682;BME280;34101;53.430;-2.224;2023-08-30T05:43:06;100328.16;;;14.60;78.13
46682;BME280;34101;53.430;-2.224;2023-08-30T05:45:34;100333.29;;;14.70;77.81
46682;BME280;34101;53.430;-2.224;2023-08-30T05:48:01;100334.27;;;14.78;77.49
46682;BME280;34101;53.430;-2.224;2023-08-30T05:50:28;100338.85;;;14.82;77.74
46682;BME280;34101;53.430;-2.224;2023-08-30T05:52:56;100336.38;;;14.87;77.26
46682;BME280;34101;53.430;-2.224;2023-08-30T05:55:23;100331.54;;;14.87;77.34
46682;BME280;34101;53.430;-2.224;2023-08-30T05:57:51;100332.24;;;14.87;77.11
46682;BME280;34101;53.430;-2.224;2023-08-30T06:00:19;100334.69;;;14.89;77.19
46682;BME280;34101;53.430;-2.224;2023-08-30T06:02:46;100334.59;;;14.94;77.04
46682;BME280;34101;53.430;-2.224;2023-08-30T06:05:14;100333.01;;;14.92;77.23
46682;BME280;34101;53.430;-2.224;2023-08-30T06:07:42;100329.31;;;14.84;77.17
46682;BME280;34101;53.430;-2.224;2023-08-30T06:10:10;100323.94;;;14.80;77.65
46682;BME280;34101;53.430;-2.224;2023-08-30T06:12:37;100321.38;;;14.78;78.28
46682;BME280;34101;53.430;-2.224;2023-08-30T06:15:05;100314.17;;;14.74;78.38
46682;BME280;34101;53.430;-2.224;2023-08-30T06:17:33;100315.36;;;14.62;78.42
46682;BME280;34101;53.430;-2.224;2023-08-30T06:20:00;100313.87;;;14.58;78.50
46682;BME280;34101;53.430;-2.224;2023-08-30T06:22:27;100313.28;;;14.60;78.15
46682;BME280;34101;53.430;-2.224;2023-08-30T06:24:55;100304.13;;;14.58;78.53
46682;BME280;34101;53.430;-2.224;2023-08-30T06:27:23;100309.75;;;14.52;78.68
46682;BME280;34101;53.430;-2.224;2023-08-30T06:29:51;100316.32;;;14.53;78.53
46682;BME280;34101;53.430;-2.224;2023-08-30T06:32:19;100318.09;;;14.53;78.39
46682;BME280;34101;53.430;-2.224;2023-08-30T06:34:46;100324.33;;;14.51;79.09
46682;BME280;34101;53.430;-2.224;2023-08-30T06:37:14;100327.35;;;14.50;78.99
46682;BME280;34101;53.430;-2.224;2023-08-30T06:39:41;100321.40;;;14.50;79.02
46682;BME280;34101;53.430;-2.224;2023-08-30T06:42:09;100319.46;;;14.51;79.37
46682;BME280;34101;53.430;-2.224;2023-08-30T06:44:36;100320.68;;;14.47;79.47
46682;BME280;34101;53.430;-2.224;2023-08-30T06:47:04;100323.73;;;14.44;79.13
46682;BME280;34101;53.430;-2.224;2023-08-30T06:49:31;100321.23;;;14.30;79.60
46682;BME280;34101;53.430;-2.224;2023-08-30T06:51:58;100316.74;;;14.28;79.87
46682;BME280;34101;53.430;-2.224;2023-08-30T06:54:25;100319.95;;;14.29;79.81
46682;BME280;34101;53.430;-2.224;2023-08-30T06:57:00;100316.67;;;14.26;79.78
46682;BME280;34101;53.430;-2.224;2023-08-30T06:59:28;100316.77;;;14.32;80.11
46682;BME280;34101;53.430;-2.224;2023-08-30T07:01:56;100318.07;;;14.42;79.77
46682;BME280;34101;53.430;-2.224;2023-08-30T07:04:23;100320.78;;;14.39;80.06
46682;BME280;34101;53.430;-2.224;2023-08-30T07:06:51;100322.77;;;14.12;80.78
46682;BME280;34101;53.430;-2.224;2023-08-30T07:09:19;100312.29;;;14.20;80.80
46682;BME280;34101;53.430;-2.224;2023-08-30T07:11:47;100312.27;;;14.31;80.42
46682;BME280;34101;53.430;-2.224;2023-08-30T07:14:15;100311.21;;;14.43;80.35
46682;BME280;34101;53.430;-2.224;2023-08-30T07:16:43;100312.24;;;14.53;79.75
46682;BME280;34101;53.430;-2.224;2023-08-30T07:19:11;100311.57;;;14.57;79.90
46682;BME280;34101;53.430;-2.224;2023-08-30T07:21:38;100308.02;;;14.53;79.62
46682;BME280;34101;53.430;-2.224;2023-08-30T07:24:07;100306.14;;;14.58;80.22
46682;BME280;34101;53.430;-2.224;2023-08-30T07:26:34;100308.43;;;14.42;79.94
46682;BME280;34101;53.430;-2.224;2023-08-30T07:29:03;100310.40;;;14.51;80.25
46682;BME280;34101;53.430;-2.224;2023-08-30T07:31:31;100311.88;;;14.50;80.71
46682;BME280;34101;53.430;-2.224;2023-08-30T07:33:59;100311.25;;;14.64;80.39
46682;BME280;34101;53.430;-2.224;2023-08-30T07:36:26;100309.97;;;14.68;80.13
46682;BME280;34101;53.430;-2.224;2023-08-30T07:38:54;100307.12;;;14.82;80.42
46682;BME280;34101;53.430;-2.224;2023-08-30T07:41:21;100308.98;;;14.79;78.97
46682;BME280;34101;53.430;-2.224;2023-08-30T07:43:49;100308.56;;;14.79;80.17
46682;BME280;34101;53.430;-2.224;2023-08-30T07:46:16;100312.25;;;14.78;80.00
46682;BME280;34101;53.430;-2.224;2023-08-30T07:48:43;100313.73;;;14.76;80.40
46682;BME280;34101;53.430;-2.224;2023-08-30T07:52:36;100319.65;;;14.82;80.18
46682;BME280;34101;53.430;-2.224;2023-08-30T07:55:04;100319.81;;;14.92;80.25
46682;BME280;34101;53.430;-2.224;2023-08-30T07:57:32;100309.95;;;15.11;79.30
46682;BME280;34101;53.430;-2.224;2023-08-30T07:59:59;100312.74;;;15.09;80.08
46682;BME280;34101;53.430;-2.224;2023-08-30T08:02:27;100308.68;;;15.15;79.68
46682;BME280;34101;53.430;-2.224;2023-08-30T08:04:54;100308.30;;;15.21;78.63
46682;BME280;34101;53.430;-2.224;2023-08-30T08:07:21;100304.11;;;15.33;79.09
46682;BME280;34101;53.430;-2.224;2023-08-30T08:09:49;100301.35;;;15.41;78.73
46682;BME280;34101;53.430;-2.224;2023-08-30T08:12:16;100299.82;;;15.54;78.67
46682;BME280;34101;53.430;-2.224;2023-08-30T08:14:44;100301.52;;;15.70;78.74
46682;BME280;34101;53.430;-2.224;2023-08-30T08:17:11;100301.64;;;15.92;77.65
46682;BME280;34101;53.430;-2.224;2023-08-30T08:19:38;100303.30;;;16.11;79.25
46682;BME280;34101;53.430;-2.224;2023-08-30T08:22:06;100305.92;;;16.37;78.84
46682;BME280;34101;53.430;-2.224;2023-08-30T08:24:33;100303.71;;;16.58;76.97
46682;BME280;34101;53.430;-2.224;2023-08-30T08:27:01;100302.29;;;16.52;77.02
46682;BME280;34101;53.430;-2.224;2023-08-30T08:29:28;100304.61;;;16.67;76.98
46682;BME280;34101;53.430;-2.224;2023-08-30T08:31:55;100303.98;;;16.67;76.33
46682;BME280;34101;53.430;-2.224;2023-08-30T08:34:23;100302.50;;;16.59;76.97
46682;BME280;34101;53.430;-2.224;2023-08-30T08:36:50;100301.28;;;16.71;76.43
46682;BME280;34101;53.430;-2.224;2023-08-30T08:39:18;100300.76;;;17.02;76.07
46682;BME280;34101;53.430;-2.224;2023-08-30T08:41:45;100303.33;;;17.18;76.05
46682;BME280;34101;53.430;-2.224;2023-08-30T08:44:13;100302.14;;;17.97;74.77
46682;BME280;34101;53.430;-2.224;2023-08-30T08:46:41;100309.67;;;18.60;72.11
46682;BME280;34101;53.430;-2.224;2023-08-30T08:49:11;100313.15;;;19.22;70.18
46682;BME280;34101;53.430;-2.224;2023-08-30T08:51:39;100310.70;;;19.95;67.20
46682;BME280;34101;53.430;-2.224;2023-08-30T08:54:07;100312.45;;;20.21;65.83
46682;BME280;34101;53.430;-2.224;2023-08-30T08:56:35;100314.45;;;20.83;62.17
46682;BME280;34101;53.430;-2.224;2023-08-30T08:59:03;100317.82;;;21.20;60.20
46682;BME280;34101;53.430;-2.224;2023-08-30T09:01:30;100320.35;;;21.75;58.97
46682;BME280;34101;53.430;-2.224;2023-08-30T09:03:58;100323.57;;;21.91;57.53
46682;BME280;34101;53.430;-2.224;2023-08-30T09:06:25;100328.53;;;22.55;55.58
46682;BME280;34101;53.430;-2.224;2023-08-30T09:08:52;100326.33;;;22.74;55.60
46682;BME280;34101;53.430;-2.224;2023-08-30T09:11:20;100323.56;;;23.05;53.47
46682;BME280;34101;53.430;-2.224;2023-08-30T09:13:47;100321.56;;;23.18;52.48
46682;BME280;34101;53.430;-2.224;2023-08-30T09:16:15;100315.92;;;23.26;51.99
46682;BME280;34101;53.430;-2.224;2023-08-30T09:18:42;100314.96;;;23.75;51.61
46682;BME280;34101;53.430;-2.224;2023-08-30T09:21:10;100310.10;;;23.41;49.76
46682;BME280;34101;53.430;-2.224;2023-08-30T09:23:38;100308.97;;;23.16;50.19
46682;BME280;34101;53.430;-2.224;2023-08-30T09:26:05;100310.24;;;23.20;51.50
46682;BME280;34101;53.430;-2.224;2023-08-30T09:28:42;100306.27;;;23.82;49.74
46682;BME280;34101;53.430;-2.224;2023-08-30T09:31:17;100304.48;;;23.78;49.71
46682;BME280;34101;53.430;-2.224;2023-08-30T09:33:45;100301.73;;;24.07;48.47
46682;BME280;34101;53.430;-2.224;2023-08-30T09:36:14;100304.69;;;25.01;47.11
46682;BME280;34101;53.430;-2.224;2023-08-30T09:38:47;100307.81;;;24.67;47.98
46682;BME280;34101;53.430;-2.224;2023-08-30T09:41:15;100307.73;;;24.09;48.44
46682;BME280;34101;53.430;-2.224;2023-08-30T09:43:43;100318.92;;;23.61;49.64
46682;BME280;34101;53.430;-2.224;2023-08-30T09:46:11;100318.01;;;23.13;49.93
46682;BME280;34101;53.430;-2.224;2023-08-30T09:48:39;100320.28;;;22.59;50.05
46682;BME280;34101;53.430;-2.224;2023-08-30T09:51:08;100320.47;;;22.40;51.67
46682;BME280;34101;53.430;-2.224;2023-08-30T09:53:40;100320.09;;;22.76;50.84
46682;BME280;34101;53.430;-2.224;2023-08-30T09:56:11;100322.82;;;23.31;47.56
46682;BME280;34101;53.430;-2.224;2023-08-30T09:58:41;100323.00;;;23.10;47.31
46682;BME280;34101;53.430;-2.224;2023-08-30T10:01:09;100325.39;;;23.93;45.29
46682;BME280;34101;53.430;-2.224;2023-08-30T10:03:36;100326.33;;;24.25;42.45
46682;BME280;34101;53.430;-2.224;2023-08-30T10:06:05;100323.36;;;24.39;40.58
46682;BME280;34101;53.430;-2.224;2023-08-30T10:08:34;100322.14;;;24.84;39.80
46682;BME280;34101;53.430;-2.224;2023-08-30T10:11:03;100324.51;;;25.07;39.81
46682;BME280;34101;53.430;-2.224;2023-08-30T10:13:33;100327.68;;;25.30;39.37
46682;BME280;34101;53.430;-2.224;2023-08-30T10:16:02;100326.05;;;25.99;36.86
46682;BME280;34101;53.430;-2.224;2023-08-30T10:18:29;100325.47;;;26.38;35.92
46682;BME280;34101;53.430;-2.224;2023-08-30T10:20:59;100334.29;;;26.87;35.72
46682;BME280;34101;53.430;-2.224;2023-08-30T10:23:28;100331.37;;;26.66;35.19
46682;BME280;34101;53.430;-2.224;2023-08-30T10:25:58;100332.59;;;26.45;35.42
46682;BME280;34101;53.430;-2.224;2023-08-30T10:28:27;100336.56;;;26.31;35.44
46682;BME280;34101;53.430;-2.224;2023-08-30T10:30:55;100339.48;;;25.86;35.82
46682;BME280;34101;53.430;-2.224;2023-08-30T10:33:22;100339.38;;;24.79;36.20
46682;BME280;34101;53.430;-2.224;2023-08-30T10:35:50;100350.73;;;24.13;37.88
46682;BME280;34101;53.430;-2.224;2023-08-30T10:38:25;100347.58;;;24.42;38.45
46682;BME280;34101;53.430;-2.224;2023-08-30T10:40:54;100347.34;;;24.80;37.20
46682;BME280;34101;53.430;-2.224;2023-08-30T10:43:29;100345.76;;;25.03;35.02
46682;BME280;34101;53.430;-2.224;2023-08-30T10:46:01;100342.13;;;25.60;33.47
46682;BME280;34101;53.430;-2.224;2023-08-30T10:48:37;100343.14;;;26.29;33.83
46682;BME280;34101;53.430;-2.224;2023-08-30T10:51:16;100346.57;;;26.95;33.09
46682;BME280;34101;53.430;-2.224;2023-08-30T10:53:55;100347.29;;;26.24;33.12
46682;BME280;34101;53.430;-2.224;2023-08-30T10:56:27;100343.91;;;26.55;32.74
46682;BME280;34101;53.430;-2.224;2023-08-30T10:58:55;100347.36;;;27.47;31.43
46682;BME280;34101;53.430;-2.224;2023-08-30T11:01:23;100346.02;;;27.96;30.93
46682;BME280;34101;53.430;-2.224;2023-08-30T11:03:51;100346.14;;;28.46;28.70
46682;BME280;34101;53.430;-2.224;2023-08-30T11:06:18;100351.92;;;28.17;28.83
46682;BME280;34101;53.430;-2.224;2023-08-30T11:08:48;100357.00;;;26.35;30.79
46682;BME280;34101;53.430;-2.224;2023-08-30T11:11:15;100350.50;;;27.09;30.24
46682;BME280;34101;53.430;-2.224;2023-08-30T11:13:43;100352.24;;;28.21;29.15
46682;BME280;34101;53.430;-2.224;2023-08-30T11:16:10;100349.67;;;28.45;28.40
46682;BME280;34101;53.430;-2.224;2023-08-30T11:18:38;100350.25;;;27.90;28.93
46682;BME280;34101;53.430;-2.224;2023-08-30T11:21:06;100351.76;;;27.38;29.51
46682;BME280;34101;53.430;-2.224;2023-08-30T11:23:33;100352.15;;;27.25;28.28
46682;BME280;34101;53.430;-2.224;2023-08-30T11:26:01;100353.60;;;27.28;29.54
46682;BME280;34101;53.430;-2.224;2023-08-30T11:28:28;100348.31;;;27.30;30.03
46682;BME280;34101;53.430;-2.224;2023-08-30T11:30:56;100348.64;;;26.80;29.63
46682;BME280;34101;53.430;-2.224;2023-08-30T11:33:23;100351.94;;;27.21;29.81
46682;BME280;34101;53.430;-2.224;2023-08-30T11:35:51;100359.32;;;26.48;30.57
46682;BME280;34101;53.430;-2.224;2023-08-30T11:38:19;100357.80;;;26.29;30.63
46682;BME280;34101;53.430;-2.224;2023-08-30T11:40:49;100356.78;;;26.92;30.46
46682;BME280;34101;53.430;-2.224;2023-08-30T11:43:16;100362.24;;;26.73;30.53
46682;BME280;34101;53.430;-2.224;2023-08-30T11:45:44;100362.90;;;27.37;29.64
46682;BME280;34101;53.430;-2.224;2023-08-30T11:48:11;100356.86;;;27.41;30.63
46682;BME280;34101;53.430;-2.224;2023-08-30T11:50:38;100355.17;;;26.02;32.67
46682;BME280;34101;53.430;-2.224;2023-08-30T11:53:06;100354.13;;;26.96;29.67
46682;BME280;34101;53.430;-2.224;2023-08-30T11:55:33;100357.79;;;26.38;30.96
46682;BME280;34101;53.430;-2.224;2023-08-30T11:58:02;100358.49;;;26.13;31.04
46682;BME280;34101;53.430;-2.224;2023-08-30T12:00:33;100360.47;;;26.21;31.45
46682;BME280;34101;53.430;-2.224;2023-08-30T12:03:01;100355.02;;;25.91;30.24
46682;BME280;34101;53.430;-2.224;2023-08-30T12:05:28;100366.42;;;24.49;33.42
46682;BME280;34101;53.430;-2.224;2023-08-30T12:07:55;100369.51;;;24.05;34.57
46682;BME280;34101;53.430;-2.224;2023-08-30T12:10:23;100368.64;;;24.05;34.83
46682;BME280;34101;53.430;-2.224;2023-08-30T12:12:50;100370.08;;;23.40;35.65
46682;BME280;34101;53.430;-2.224;2023-08-30T12:15:18;100373.66;;;23.13;36.50
46682;BME280;34101;53.430;-2.224;2023-08-30T12:17:45;100366.16;;;23.13;36.97
46682;BME280;34101;53.430;-2.224;2023-08-30T12:20:16;100371.20;;;23.04;37.50
46682;BME280;34101;53.430;-2.224;2023-08-30T12:22:43;100369.53;;;23.21;38.49
46682;BME280;34101;53.430;-2.224;2023-08-30T12:25:19;100369.90;;;23.21;39.24
46682;BME280;34101;53.430;-2.224;2023-08-30T12:27:47;100369.15;;;23.37;38.97
46682;BME280;34101;53.430;-2.224;2023-08-30T12:30:16;100368.81;;;23.32;39.11
46682;BME280;34101;53.430;-2.224;2023-08-30T12:32:44;100374.75;;;22.97;38.52
46682;BME280;34101;53.430;-2.224;2023-08-30T12:35:11;100376.77;;;23.25;38.21
46682;BME280;34101;53.430;-2.224;2023-08-30T12:37:38;100374.54;;;23.38;38.98
46682;BME280;34101;53.430;-2.224;2023-08-30T12:40:06;100375.78;;;23.79;38.02
46682;BME280;34101;53.430;-2.224;2023-08-30T12:42:34;100374.58;;;23.36;37.43
46682;BME280;34101;53.430;-2.224;2023-08-30T12:45:01;100378.52;;;23.04;37.31